sensor_id;sensor_type;location;lat;lon;timestamp;P1;durP1;ratioP1;P2;durP2;ratioP2
15603;SDS011;7902;49.042;9.092;2022-12-18T00:01:04;54.47;;;23.27;;
15603;SDS011;7902;49.042;9.092;2022-12-18T00:03:35;61.13;;;24.87;;
15603;SDS011;7902;49.042;9.092;2022-12-18T00:06:01;50.80;;;21.63;;
15603;SDS011;7902;49.042;9.092;2022-12-18T00:08:27;55.90;;;22.03;;
15603;SDS011;7902;49.042;9.092;2022-12-18T00:10:54;49.57;;;20.80;;
15603;SDS011;7902;49.042;9.092;2022-12-18T00:13:20;43.03;;;20.40;;
15603;SDS011;7902;49.042;9.092;2022-12-18T00:15:46;64.20;;;20.80;;
15603;SDS011;7902;49.042;9.092;2022-12-18T00:18:11;45.87;;;19.23;;
15603;SDS011;7902;49.042;9.092;2022-12-18T00:20:38;44.50;;;19.37;;
15603;SDS011;7902;49.042;9.092;2022-12-18T00:23:06;47.07;;;18.90;;
15603;SDS011;7902;49.042;9.092;2022-12-18T00:25:33;52.20;;;18.63;;
15603;SDS011;7902;49.042;9.092;2022-12-18T00:28:00;44.97;;;21.07;;
15603;SDS011;7902;49.042;9.092;2022-12-18T00:30:26;51.53;;;19.73;;
15603;SDS011;7902;49.042;9.092;2022-12-18T00:32:52;49.03;;;19.50;;
15603;SDS011;7902;49.042;9.092;2022-12-18T00:35:18;48.47;;;20.00;;
15603;SDS011;7902;49.042;9.092;2022-12-18T00:37:44;52.40;;;18.90;;
15603;SDS011;7902;49.042;9.092;2022-12-18T00:40:10;48.60;;;19.37;;
15603;SDS011;7902;49.042;9.092;2022-12-18T00:42:37;68.10;;;22.83;;
15603;SDS011;7902;49.042;9.092;2022-12-18T00:45:25;51.30;;;22.30;;
15603;SDS011;7902;49.042;9.092;2022-12-18T00:47:52;46.37;;;19.47;;
15603;SDS011;7902;49.042;9.092;2022-12-18T00:50:19;41.53;;;19.10;;
15603;SDS011;7902;49.042;9.092;2022-12-18T00:52:46;39.40;;;17.53;;
15603;SDS011;7902;49.042;9.092;2022-12-18T00:55:12;49.50;;;19.00;;
15603;SDS011;7902;49.042;9.092;2022-12-18T00:57:38;53.50;;;21.10;;
15603;SDS011;7902;49.042;9.092;2022-12-18T01:00:05;48.57;;;19.07;;
15603;SDS011;7902;49.042;9.092;2022-12-18T01:02:32;47.27;;;21.10;;
15603;SDS011;7902;49.042;9.092;2022-12-18T01:04:58;54.77;;;22.07;;
15603;SDS011;7902;49.042;9.092;2022-12-18T01:07:24;49.90;;;22.57;;
15603;SDS011;7902;49.042;9.092;2022-12-18T01:09:50;44.13;;;18.83;;
15603;SDS011;7902;49.042;9.092;2022-12-18T01:12:16;47.90;;;19.10;;
15603;SDS011;7902;49.042;9.092;2022-12-18T01:14:42;46.57;;;19.93;;
15603;SDS011;7902;49.042;9.092;2022-12-18T01:17:08;62.47;;;24.27;;
15603;SDS011;7902;49.042;9.092;2022-12-18T01:19:34;50.07;;;19.20;;
15603;SDS011;7902;49.042;9.092;2022-12-18T01:22:00;50.27;;;18.93;;
15603;SDS011;7902;49.042;9.092;2022-12-18T01:24:25;51.73;;;24.00;;
15603;SDS011;7902;49.042;9.092;2022-12-18T01:26:51;43.97;;;17.60;;
15603;SDS011;7902;49.042;9.092;2022-12-18T01:29:17;58.13;;;24.57;;
15603;SDS011;7902;49.042;9.092;2022-12-18T01:31:43;40.50;;;17.27;;
15603;SDS011;7902;49.042;9.092;2022-12-18T01:34:09;47.07;;;18.13;;
15603;SDS011;7902;49.042;9.092;2022-12-18T01:36:36;47.63;;;19.20;;
15603;SDS011;7902;49.042;9.092;2022-12-18T01:39:05;47.83;;;19.63;;
15603;SDS011;7902;49.042;9.092;2022-12-18T01:41:33;43.10;;;17.67;;
15603;SDS011;7902;49.042;9.092;2022-12-18T01:47:18;42.13;;;17.40;;
15603;SDS011;7902;49.042;9.092;2022-12-18T01:49:49;40.90;;;18.77;;
15603;SDS011;7902;49.042;9.092;2022-12-18T01:52:15;40.27;;;17.17;;
15603;SDS011;7902;49.042;9.092;2022-12-18T01:54:43;44.03;;;17.60;;
15603;SDS011;7902;49.042;9.092;2022-12-18T01:57:09;49.00;;;18.60;;
15603;SDS011;7902;49.042;9.092;2022-12-18T01:59:35;41.60;;;18.60;;
15603;SDS011;7902;49.042;9.092;2022-12-18T02:02:02;44.53;;;19.70;;
15603;SDS011;7902;49.042;9.092;2022-12-18T02:04:28;45.50;;;18.87;;
15603;SDS011;7902;49.042;9.092;2022-12-18T02:07:01;40.87;;;17.63;;
15603;SDS011;7902;49.042;9.092;2022-12-18T02:09:35;46.63;;;21.00;;
15603;SDS011;7902;49.042;9.092;2022-12-18T02:12:13;56.20;;;22.80;;
15603;SDS011;7902;49.042;9.092;2022-12-18T02:20:08;47.13;;;17.90;;
15603;SDS011;7902;49.042;9.092;2022-12-18T02:25:53;48.37;;;19.00;;
15603;SDS011;7902;49.042;9.092;2022-12-18T02:28:31;52.37;;;19.07;;
15603;SDS011;7902;49.042;9.092;2022-12-18T02:31:01;41.73;;;18.70;;
15603;SDS011;7902;49.042;9.092;2022-12-18T02:33:30;47.00;;;17.57;;
15603;SDS011;7902;49.042;9.092;2022-12-18T02:35:57;47.83;;;19.60;;
15603;SDS011;7902;49.042;9.092;2022-12-18T02:38:25;51.83;;;18.10;;
15603;SDS011;7902;49.042;9.092;2022-12-18T02:40:52;40.43;;;16.57;;
15603;SDS011;7902;49.042;9.092;2022-12-18T02:43:19;47.53;;;17.87;;
15603;SDS011;7902;49.042;9.092;2022-12-18T02:45:50;38.43;;;18.10;;
15603;SDS011;7902;49.042;9.092;2022-12-18T02:48:20;38.97;;;18.13;;
15603;SDS011;7902;49.042;9.092;2022-12-18T02:51:32;48.30;;;19.50;;
15603;SDS011;7902;49.042;9.092;2022-12-18T02:53:45;49.10;;;20.33;;
15603;SDS011;7902;49.042;9.092;2022-12-18T02:56:20;48.97;;;19.43;;
15603;SDS011;7902;49.042;9.092;2022-12-18T02:58:58;40.47;;;17.07;;
15603;SDS011;7902;49.042;9.092;2022-12-18T03:01:29;42.17;;;18.30;;
15603;SDS011;7902;49.042;9.092;2022-12-18T03:04:02;42.50;;;17.60;;
15603;SDS011;7902;49.042;9.092;2022-12-18T03:06:40;36.70;;;16.90;;
15603;SDS011;7902;49.042;9.092;2022-12-18T03:09:19;38.80;;;16.83;;
15603;SDS011;7902;49.042;9.092;2022-12-18T03:11:52;36.73;;;15.20;;
15603;SDS011;7902;49.042;9.092;2022-12-18T03:14:40;38.27;;;16.93;;
15603;SDS011;7902;49.042;9.092;2022-12-18T03:17:10;44.80;;;18.20;;
15603;SDS011;7902;49.042;9.092;2022-12-18T03:19:41;39.57;;;16.77;;
15603;SDS011;7902;49.042;9.092;2022-12-18T03:22:09;42.30;;;17.70;;
15603;SDS011;7902;49.042;9.092;2022-12-18T03:24:35;40.17;;;18.07;;
15603;SDS011;7902;49.042;9.092;2022-12-18T03:27:05;35.67;;;15.87;;
15603;SDS011;7902;49.042;9.092;2022-12-18T03:29:37;44.90;;;18.77;;
15603;SDS011;7902;49.042;9.092;2022-12-18T03:32:09;38.37;;;15.70;;
15603;SDS011;7902;49.042;9.092;2022-12-18T03:34:38;44.27;;;16.07;;
15603;SDS011;7902;49.042;9.092;2022-12-18T03:37:06;44.10;;;18.63;;
15603;SDS011;7902;49.042;9.092;2022-12-18T03:39:33;38.80;;;16.30;;
15603;SDS011;7902;49.042;9.092;2022-12-18T03:47:16;42.73;;;16.80;;
15603;SDS011;7902;49.042;9.092;2022-12-18T03:50:11;43.63;;;16.67;;
15603;SDS011;7902;49.042;9.092;2022-12-18T03:55:20;40.97;;;16.60;;
15603;SDS011;7902;49.042;9.092;2022-12-18T03:57:47;38.20;;;15.37;;
15603;SDS011;7902;49.042;9.092;2022-12-18T04:00:14;45.67;;;16.70;;
15603;SDS011;7902;49.042;9.092;2022-12-18T04:02:44;35.53;;;15.17;;
15603;SDS011;7902;49.042;9.092;2022-12-18T04:05:14;32.10;;;13.63;;
15603;SDS011;7902;49.042;9.092;2022-12-18T04:07:41;36.63;;;15.33;;
15603;SDS011;7902;49.042;9.092;2022-12-18T04:10:09;38.80;;;16.10;;
15603;SDS011;7902;49.042;9.092;2022-12-18T04:12:37;36.33;;;14.97;;
15603;SDS011;7902;49.042;9.092;2022-12-18T04:15:03;34.13;;;14.40;;
15603;SDS011;7902;49.042;9.092;2022-12-18T04:17:30;41.63;;;16.23;;
15603;SDS011;7902;49.042;9.092;2022-12-18T04:19:56;41.27;;;14.60;;
15603;SDS011;7902;49.042;9.092;2022-12-18T04:22:22;40.03;;;13.97;;
15603;SDS011;7902;49.042;9.092;2022-12-18T04:24:48;36.80;;;15.80;;
15603;SDS011;7902;49.042;9.092;2022-12-18T04:27:14;38.57;;;15.30;;
15603;SDS011;7902;49.042;9.092;2022-12-18T04:29:40;33.87;;;15.10;;
15603;SDS011;7902;49.042;9.092;2022-12-18T04:32:06;43.13;;;17.67;;
15603;SDS011;7902;49.042;9.092;2022-12-18T04:34:33;31.67;;;13.40;;
15603;SDS011;7902;49.042;9.092;2022-12-18T04:36:59;39.67;;;15.20;;
15603;SDS011;7902;49.042;9.092;2022-12-18T04:39:25;38.67;;;15.20;;
15603;SDS011;7902;49.042;9.092;2022-12-18T04:41:51;52.83;;;16.83;;
15603;SDS011;7902;49.042;9.092;2022-12-18T04:44:17;41.17;;;15.20;;
15603;SDS011;7902;49.042;9.092;2022-12-18T04:46:43;40.50;;;15.27;;
15603;SDS011;7902;49.042;9.092;2022-12-18T04:49:09;39.13;;;15.40;;
15603;SDS011;7902;49.042;9.092;2022-12-18T04:51:36;35.43;;;14.23;;
15603;SDS011;7902;49.042;9.092;2022-12-18T04:54:03;37.00;;;14.73;;
15603;SDS011;7902;49.042;9.092;2022-12-18T04:56:30;32.30;;;13.83;;
15603;SDS011;7902;49.042;9.092;2022-12-18T04:58:56;41.13;;;14.83;;
15603;SDS011;7902;49.042;9.092;2022-12-18T05:01:22;35.17;;;14.30;;
15603;SDS011;7902;49.042;9.092;2022-12-18T05:03:48;37.47;;;15.43;;
15603;SDS011;7902;49.042;9.092;2022-12-18T05:06:16;33.60;;;12.80;;
15603;SDS011;7902;49.042;9.092;2022-12-18T05:08:42;32.83;;;13.60;;
15603;SDS011;7902;49.042;9.092;2022-12-18T05:11:08;38.60;;;15.60;;
15603;SDS011;7902;49.042;9.092;2022-12-18T05:13:36;42.10;;;14.33;;
15603;SDS011;7902;49.042;9.092;2022-12-18T05:16:03;33.43;;;14.60;;
15603;SDS011;7902;49.042;9.092;2022-12-18T05:18:30;39.50;;;15.70;;
15603;SDS011;7902;49.042;9.092;2022-12-18T05:20:56;31.63;;;14.63;;
15603;SDS011;7902;49.042;9.092;2022-12-18T05:23:23;37.07;;;13.83;;
15603;SDS011;7902;49.042;9.092;2022-12-18T05:25:54;38.43;;;14.67;;
15603;SDS011;7902;49.042;9.092;2022-12-18T05:28:21;35.70;;;12.53;;
15603;SDS011;7902;49.042;9.092;2022-12-18T05:30:49;38.03;;;13.60;;
15603;SDS011;7902;49.042;9.092;2022-12-18T05:33:18;36.20;;;13.67;;
15603;SDS011;7902;49.042;9.092;2022-12-18T05:35:50;36.93;;;14.60;;
15603;SDS011;7902;49.042;9.092;2022-12-18T05:38:17;36.00;;;14.17;;
15603;SDS011;7902;49.042;9.092;2022-12-18T05:40:44;32.70;;;12.70;;
15603;SDS011;7902;49.042;9.092;2022-12-18T05:43:10;31.57;;;13.00;;
15603;SDS011;7902;49.042;9.092;2022-12-18T05:45:37;32.33;;;13.50;;
15603;SDS011;7902;49.042;9.092;2022-12-18T05:48:04;31.37;;;12.30;;
15603;SDS011;7902;49.042;9.092;2022-12-18T05:50:30;28.33;;;11.00;;
15603;SDS011;7902;49.042;9.092;2022-12-18T05:52:55;37.63;;;13.57;;
15603;SDS011;7902;49.042;9.092;2022-12-18T05:55:21;29.70;;;12.17;;
15603;SDS011;7902;49.042;9.092;2022-12-18T05:57:47;28.90;;;11.20;;
15603;SDS011;7902;49.042;9.092;2022-12-18T06:00:13;26.23;;;12.27;;
15603;SDS011;7902;49.042;9.092;2022-12-18T06:02:40;34.47;;;12.30;;
15603;SDS011;7902;49.042;9.092;2022-12-18T06:05:06;31.27;;;12.53;;
15603;SDS011;7902;49.042;9.092;2022-12-18T06:07:32;38.03;;;13.40;;
15603;SDS011;7902;49.042;9.092;2022-12-18T06:09:57;32.93;;;11.77;;
15603;SDS011;7902;49.042;9.092;2022-12-18T06:12:23;31.93;;;10.83;;
15603;SDS011;7902;49.042;9.092;2022-12-18T06:14:49;26.93;;;12.03;;
15603;SDS011;7902;49.042;9.092;2022-12-18T06:17:15;32.87;;;11.73;;
15603;SDS011;7902;49.042;9.092;2022-12-18T06:19:41;24.40;;;10.03;;
15603;SDS011;7902;49.042;9.092;2022-12-18T06:22:07;28.37;;;11.00;;
15603;SDS011;7902;49.042;9.092;2022-12-18T06:24:33;26.43;;;10.73;;
15603;SDS011;7902;49.042;9.092;2022-12-18T06:26:59;29.43;;;11.20;;
15603;SDS011;7902;49.042;9.092;2022-12-18T06:29:25;28.20;;;11.90;;
15603;SDS011;7902;49.042;9.092;2022-12-18T06:31:50;27.90;;;11.53;;
15603;SDS011;7902;49.042;9.092;2022-12-18T06:34:17;30.77;;;11.87;;
15603;SDS011;7902;49.042;9.092;2022-12-18T06:36:42;27.23;;;11.43;;
15603;SDS011;7902;49.042;9.092;2022-12-18T06:39:08;32.07;;;11.60;;
15603;SDS011;7902;49.042;9.092;2022-12-18T06:41:34;30.83;;;12.53;;
15603;SDS011;7902;49.042;9.092;2022-12-18T06:44:00;28.23;;;12.07;;
15603;SDS011;7902;49.042;9.092;2022-12-18T06:46:26;31.43;;;11.77;;
15603;SDS011;7902;49.042;9.092;2022-12-18T06:48:52;29.70;;;10.10;;
15603;SDS011;7902;49.042;9.092;2022-12-18T06:51:19;31.00;;;13.07;;
15603;SDS011;7902;49.042;9.092;2022-12-18T06:53:45;28.27;;;11.53;;
15603;SDS011;7902;49.042;9.092;2022-12-18T06:56:11;23.90;;;11.20;;
15603;SDS011;7902;49.042;9.092;2022-12-18T06:58:38;26.63;;;10.90;;
15603;SDS011;7902;49.042;9.092;2022-12-18T07:01:05;26.37;;;11.10;;
15603;SDS011;7902;49.042;9.092;2022-12-18T07:03:33;30.67;;;11.73;;
15603;SDS011;7902;49.042;9.092;2022-12-18T07:05:59;28.37;;;12.10;;
15603;SDS011;7902;49.042;9.092;2022-12-18T07:08:25;26.57;;;11.17;;
15603;SDS011;7902;49.042;9.092;2022-12-18T07:10:51;29.03;;;10.97;;
15603;SDS011;7902;49.042;9.092;2022-12-18T07:13:19;27.03;;;11.47;;
15603;SDS011;7902;49.042;9.092;2022-12-18T07:15:45;28.07;;;11.53;;
15603;SDS011;7902;49.042;9.092;2022-12-18T07:18:11;31.60;;;11.80;;
15603;SDS011;7902;49.042;9.092;2022-12-18T07:20:37;25.40;;;12.43;;
15603;SDS011;7902;49.042;9.092;2022-12-18T07:23:03;55.80;;;12.10;;
15603;SDS011;7902;49.042;9.092;2022-12-18T07:25:34;29.20;;;11.50;;
15603;SDS011;7902;49.042;9.092;2022-12-18T07:28:01;26.00;;;10.97;;
15603;SDS011;7902;49.042;9.092;2022-12-18T07:30:27;30.97;;;11.37;;
15603;SDS011;7902;49.042;9.092;2022-12-18T07:32:53;26.80;;;11.00;;
15603;SDS011;7902;49.042;9.092;2022-12-18T07:35:19;24.33;;;11.53;;
15603;SDS011;7902;49.042;9.092;2022-12-18T07:38:00;25.23;;;10.90;;
15603;SDS011;7902;49.042;9.092;2022-12-18T07:40:26;30.70;;;12.00;;
15603;SDS011;7902;49.042;9.092;2022-12-18T07:42:52;25.37;;;10.77;;
15603;SDS011;7902;49.042;9.092;2022-12-18T07:45:18;29.03;;;11.37;;
15603;SDS011;7902;49.042;9.092;2022-12-18T07:47:44;28.30;;;10.43;;
15603;SDS011;7902;49.042;9.092;2022-12-18T07:50:10;42.20;;;14.80;;
15603;SDS011;7902;49.042;9.092;2022-12-18T07:52:36;38.93;;;13.93;;
15603;SDS011;7902;49.042;9.092;2022-12-18T07:55:02;34.70;;;11.83;;
15603;SDS011;7902;49.042;9.092;2022-12-18T07:57:28;26.60;;;10.50;;
15603;SDS011;7902;49.042;9.092;2022-12-18T07:59:54;24.20;;;10.30;;
15603;SDS011;7902;49.042;9.092;2022-12-18T08:02:20;32.17;;;12.57;;
15603;SDS011;7902;49.042;9.092;2022-12-18T08:04:46;26.43;;;10.50;;
15603;SDS011;7902;49.042;9.092;2022-12-18T08:07:12;24.80;;;11.10;;
15603;SDS011;7902;49.042;9.092;2022-12-18T08:09:38;25.07;;;9.67;;
15603;SDS011;7902;49.042;9.092;2022-12-18T08:12:04;27.70;;;11.80;;
15603;SDS011;7902;49.042;9.092;2022-12-18T08:14:30;26.70;;;10.50;;
15603;SDS011;7902;49.042;9.092;2022-12-18T08:16:56;26.87;;;11.53;;
15603;SDS011;7902;49.042;9.092;2022-12-18T08:19:22;31.90;;;11.80;;
15603;SDS011;7902;49.042;9.092;2022-12-18T08:21:48;28.10;;;13.73;;
15603;SDS011;7902;49.042;9.092;2022-12-18T08:24:14;25.00;;;11.50;;
15603;SDS011;7902;49.042;9.092;2022-12-18T08:26:40;31.03;;;12.90;;
15603;SDS011;7902;49.042;9.092;2022-12-18T08:29:05;31.10;;;12.07;;
15603;SDS011;7902;49.042;9.092;2022-12-18T08:31:31;30.07;;;13.00;;
15603;SDS011;7902;49.042;9.092;2022-12-18T08:33:58;36.87;;;15.90;;
15603;SDS011;7902;49.042;9.092;2022-12-18T08:36:24;35.63;;;15.43;;
15603;SDS011;7902;49.042;9.092;2022-12-18T08:38:50;32.80;;;13.73;;
15603;SDS011;7902;49.042;9.092;2022-12-18T08:41:16;43.83;;;16.00;;
15603;SDS011;7902;49.042;9.092;2022-12-18T08:43:43;35.80;;;15.73;;
15603;SDS011;7902;49.042;9.092;2022-12-18T08:46:31;48.40;;;17.90;;
15603;SDS011;7902;49.042;9.092;2022-12-18T08:48:59;44.17;;;17.33;;
15603;SDS011;7902;49.042;9.092;2022-12-18T08:51:25;46.43;;;17.57;;
15603;SDS011;7902;49.042;9.092;2022-12-18T08:53:51;36.57;;;14.73;;
15603;SDS011;7902;49.042;9.092;2022-12-18T08:56:17;31.90;;;13.73;;
15603;SDS011;7902;49.042;9.092;2022-12-18T08:58:43;30.27;;;13.60;;
15603;SDS011;7902;49.042;9.092;2022-12-18T09:01:10;27.30;;;12.53;;
15603;SDS011;7902;49.042;9.092;2022-12-18T09:03:37;27.00;;;12.97;;
15603;SDS011;7902;49.042;9.092;2022-12-18T09:06:04;29.53;;;10.40;;
15603;SDS011;7902;49.042;9.092;2022-12-18T09:08:30;33.33;;;14.20;;
15603;SDS011;7902;49.042;9.092;2022-12-18T09:10:56;36.80;;;15.40;;
15603;SDS011;7902;49.042;9.092;2022-12-18T09:13:22;36.60;;;14.80;;
15603;SDS011;7902;49.042;9.092;2022-12-18T09:15:49;59.70;;;20.17;;
15603;SDS011;7902;49.042;9.092;2022-12-18T09:18:18;33.83;;;15.13;;
15603;SDS011;7902;49.042;9.092;2022-12-18T09:20:45;31.20;;;13.17;;
15603;SDS011;7902;49.042;9.092;2022-12-18T09:23:12;29.67;;;13.23;;
15603;SDS011;7902;49.042;9.092;2022-12-18T09:25:38;32.83;;;13.67;;
15603;SDS011;7902;49.042;9.092;2022-12-18T09:28:38;33.83;;;13.00;;
15603;SDS011;7902;49.042;9.092;2022-12-18T09:30:56;61.40;;;24.90;;
15603;SDS011;7902;49.042;9.092;2022-12-18T09:33:22;29.23;;;11.30;;
15603;SDS011;7902;49.042;9.092;2022-12-18T09:35:48;46.77;;;18.40;;
15603;SDS011;7902;49.042;9.092;2022-12-18T09:38:15;29.43;;;12.90;;
15603;SDS011;7902;49.042;9.092;2022-12-18T09:40:51;37.33;;;14.80;;
15603;SDS011;7902;49.042;9.092;2022-12-18T09:43:27;28.93;;;11.97;;
15603;SDS011;7902;49.042;9.092;2022-12-18T09:46:04;28.30;;;11.10;;
15603;SDS011;7902;49.042;9.092;2022-12-18T09:48:35;28.70;;;12.13;;
15603;SDS011;7902;49.042;9.092;2022-12-18T09:51:12;36.80;;;12.20;;
15603;SDS011;7902;49.042;9.092;2022-12-18T09:53:41;33.00;;;12.10;;
15603;SDS011;7902;49.042;9.092;2022-12-18T09:56:15;26.50;;;11.93;;
15603;SDS011;7902;49.042;9.092;2022-12-18T09:58:53;32.10;;;13.13;;
15603;SDS011;7902;49.042;9.092;2022-12-18T10:01:24;34.23;;;12.20;;
15603;SDS011;7902;49.042;9.092;2022-12-18T10:03:50;35.53;;;14.23;;
15603;SDS011;7902;49.042;9.092;2022-12-18T10:06:18;32.37;;;12.60;;
15603;SDS011;7902;49.042;9.092;2022-12-18T10:17:13;26.00;;;10.53;;
15603;SDS011;7902;49.042;9.092;2022-12-18T10:19:52;29.70;;;13.47;;
15603;SDS011;7902;49.042;9.092;2022-12-18T10:25:25;30.70;;;12.73;;
15603;SDS011;7902;49.042;9.092;2022-12-18T10:27:56;32.13;;;12.53;;
15603;SDS011;7902;49.042;9.092;2022-12-18T10:30:32;32.27;;;12.90;;
15603;SDS011;7902;49.042;9.092;2022-12-18T10:33:02;33.40;;;13.73;;
15603;SDS011;7902;49.042;9.092;2022-12-18T10:35:28;32.47;;;12.27;;
15603;SDS011;7902;49.042;9.092;2022-12-18T10:40:29;29.57;;;12.40;;
15603;SDS011;7902;49.042;9.092;2022-12-18T10:45:30;39.57;;;14.13;;
15603;SDS011;7902;49.042;9.092;2022-12-18T10:47:56;40.77;;;13.83;;
15603;SDS011;7902;49.042;9.092;2022-12-18T10:53:05;38.23;;;14.57;;
15603;SDS011;7902;49.042;9.092;2022-12-18T10:55:32;32.90;;;12.10;;
15603;SDS011;7902;49.042;9.092;2022-12-18T11:00:45;33.93;;;12.10;;
15603;SDS011;7902;49.042;9.092;2022-12-18T11:06:17;33.20;;;12.97;;
15603;SDS011;7902;49.042;9.092;2022-12-18T11:09:07;29.97;;;11.67;;
15603;SDS011;7902;49.042;9.092;2022-12-18T11:11:49;28.87;;;12.80;;
15603;SDS011;7902;49.042;9.092;2022-12-18T11:14:19;38.93;;;14.30;;
15603;SDS011;7902;49.042;9.092;2022-12-18T11:16:49;36.77;;;13.50;;
15603;SDS011;7902;49.042;9.092;2022-12-18T11:21:59;39.60;;;15.77;;
15603;SDS011;7902;49.042;9.092;2022-12-18T11:24:30;38.53;;;15.50;;
15603;SDS011;7902;49.042;9.092;2022-12-18T11:27:03;38.40;;;15.00;;
15603;SDS011;7902;49.042;9.092;2022-12-18T11:29:32;40.20;;;14.70;;
15603;SDS011;7902;49.042;9.092;2022-12-18T11:35:03;29.00;;;12.20;;
15603;SDS011;7902;49.042;9.092;2022-12-18T11:37:37;32.33;;;13.03;;
15603;SDS011;7902;49.042;9.092;2022-12-18T11:40:14;36.67;;;15.07;;
15603;SDS011;7902;49.042;9.092;2022-12-18T11:43:02;33.67;;;12.63;;
15603;SDS011;7902;49.042;9.092;2022-12-18T11:45:35;31.90;;;13.07;;
15603;SDS011;7902;49.042;9.092;2022-12-18T11:48:25;32.07;;;13.00;;
15603;SDS011;7902;49.042;9.092;2022-12-18T11:50:57;33.37;;;13.77;;
15603;SDS011;7902;49.042;9.092;2022-12-18T11:53:26;32.37;;;12.77;;
15603;SDS011;7902;49.042;9.092;2022-12-18T11:58:30;32.40;;;14.27;;
15603;SDS011;7902;49.042;9.092;2022-12-18T12:12:09;35.43;;;13.57;;
15603;SDS011;7902;49.042;9.092;2022-12-18T12:17:24;42.60;;;17.23;;
15603;SDS011;7902;49.042;9.092;2022-12-18T12:22:56;38.70;;;14.40;;
15603;SDS011;7902;49.042;9.092;2022-12-18T12:25:31;39.50;;;14.67;;
15603;SDS011;7902;49.042;9.092;2022-12-18T12:28:02;32.27;;;13.93;;
15603;SDS011;7902;49.042;9.092;2022-12-18T12:38:47;40.87;;;15.03;;
15603;SDS011;7902;49.042;9.092;2022-12-18T12:41:18;36.60;;;13.80;;
15603;SDS011;7902;49.042;9.092;2022-12-18T12:44:07;42.70;;;14.70;;
15603;SDS011;7902;49.042;9.092;2022-12-18T12:46:39;35.17;;;14.57;;
15603;SDS011;7902;49.042;9.092;2022-12-18T12:49:15;37.20;;;15.00;;
15603;SDS011;7902;49.042;9.092;2022-12-18T12:54:48;34.97;;;14.73;;
15603;SDS011;7902;49.042;9.092;2022-12-18T12:57:27;34.77;;;14.20;;
15603;SDS011;7902;49.042;9.092;2022-12-18T13:05:18;37.03;;;14.70;;
15603;SDS011;7902;49.042;9.092;2022-12-18T13:10:48;35.00;;;13.83;;
15603;SDS011;7902;49.042;9.092;2022-12-18T13:13:15;40.73;;;16.33;;
15603;SDS011;7902;49.042;9.092;2022-12-18T13:18:13;35.53;;;13.97;;
15603;SDS011;7902;49.042;9.092;2022-12-18T13:20:46;34.03;;;12.83;;
15603;SDS011;7902;49.042;9.092;2022-12-18T13:25:50;36.93;;;13.70;;
15603;SDS011;7902;49.042;9.092;2022-12-18T13:28:49;38.73;;;14.63;;
15603;SDS011;7902;49.042;9.092;2022-12-18T13:31:12;39.53;;;13.53;;
15603;SDS011;7902;49.042;9.092;2022-12-18T13:33:44;34.40;;;13.40;;
15603;SDS011;7902;49.042;9.092;2022-12-18T13:36:27;35.53;;;14.30;;
15603;SDS011;7902;49.042;9.092;2022-12-18T13:39:09;35.57;;;14.00;;
15603;SDS011;7902;49.042;9.092;2022-12-18T13:41:35;33.33;;;14.60;;
15603;SDS011;7902;49.042;9.092;2022-12-18T13:44:11;34.30;;;14.97;;
15603;SDS011;7902;49.042;9.092;2022-12-18T13:49:31;33.13;;;14.17;;
15603;SDS011;7902;49.042;9.092;2022-12-18T13:51:57;36.90;;;14.63;;
15603;SDS011;7902;49.042;9.092;2022-12-18T13:54:37;42.50;;;16.00;;
15603;SDS011;7902;49.042;9.092;2022-12-18T13:57:23;38.80;;;16.03;;
15603;SDS011;7902;49.042;9.092;2022-12-18T13:59:54;52.90;;;16.07;;
15603;SDS011;7902;49.042;9.092;2022-12-18T14:02:22;40.10;;;16.50;;
15603;SDS011;7902;49.042;9.092;2022-12-18T14:04:50;38.87;;;16.83;;
15603;SDS011;7902;49.042;9.092;2022-12-18T14:08:00;33.20;;;13.53;;
15603;SDS011;7902;49.042;9.092;2022-12-18T14:10:11;38.07;;;15.50;;
15603;SDS011;7902;49.042;9.092;2022-12-18T14:12:40;37.07;;;15.97;;
15603;SDS011;7902;49.042;9.092;2022-12-18T14:17:53;37.27;;;13.23;;
15603;SDS011;7902;49.042;9.092;2022-12-18T14:20:21;35.83;;;14.83;;
15603;SDS011;7902;49.042;9.092;2022-12-18T14:22:48;35.73;;;14.03;;
15603;SDS011;7902;49.042;9.092;2022-12-18T14:27:42;38.03;;;14.13;;
15603;SDS011;7902;49.042;9.092;2022-12-18T14:35:40;37.23;;;14.40;;
15603;SDS011;7902;49.042;9.092;2022-12-18T14:40:56;32.53;;;12.63;;
15603;SDS011;7902;49.042;9.092;2022-12-18T14:43:24;32.23;;;13.33;;
15603;SDS011;7902;49.042;9.092;2022-12-18T14:45:55;31.13;;;12.60;;
15603;SDS011;7902;49.042;9.092;2022-12-18T14:48:33;29.80;;;12.50;;
15603;SDS011;7902;49.042;9.092;2022-12-18T14:51:18;34.23;;;14.67;;
15603;SDS011;7902;49.042;9.092;2022-12-18T14:59:23;31.07;;;13.40;;
15603;SDS011;7902;49.042;9.092;2022-12-18T15:02:03;33.47;;;13.00;;
15603;SDS011;7902;49.042;9.092;2022-12-18T15:04:39;34.47;;;13.93;;
15603;SDS011;7902;49.042;9.092;2022-12-18T15:07:12;34.63;;;13.57;;
15603;SDS011;7902;49.042;9.092;2022-12-18T15:18:02;29.87;;;12.20;;
15603;SDS011;7902;49.042;9.092;2022-12-18T15:20:39;37.20;;;14.50;;
15603;SDS011;7902;49.042;9.092;2022-12-18T15:23:18;34.37;;;13.90;;
15603;SDS011;7902;49.042;9.092;2022-12-18T15:25:46;36.97;;;14.10;;
15603;SDS011;7902;49.042;9.092;2022-12-18T15:28:36;35.57;;;14.53;;
15603;SDS011;7902;49.042;9.092;2022-12-18T15:33:40;38.37;;;15.33;;
15603;SDS011;7902;49.042;9.092;2022-12-18T15:36:09;28.30;;;13.20;;
15603;SDS011;7902;49.042;9.092;2022-12-18T15:38:36;36.13;;;14.03;;
15603;SDS011;7902;49.042;9.092;2022-12-18T15:41:02;41.27;;;15.50;;
15603;SDS011;7902;49.042;9.092;2022-12-18T15:43:29;32.40;;;13.37;;
15603;SDS011;7902;49.042;9.092;2022-12-18T15:46:01;31.03;;;13.00;;
15603;SDS011;7902;49.042;9.092;2022-12-18T15:48:27;32.97;;;13.53;;
15603;SDS011;7902;49.042;9.092;2022-12-18T15:50:54;37.87;;;15.63;;
15603;SDS011;7902;49.042;9.092;2022-12-18T15:53:23;46.17;;;16.40;;
15603;SDS011;7902;49.042;9.092;2022-12-18T15:55:50;45.60;;;16.53;;
15603;SDS011;7902;49.042;9.092;2022-12-18T15:58:35;35.10;;;15.77;;
15603;SDS011;7902;49.042;9.092;2022-12-18T16:01:01;35.57;;;14.23;;
15603;SDS011;7902;49.042;9.092;2022-12-18T16:03:27;34.23;;;13.77;;
15603;SDS011;7902;49.042;9.092;2022-12-18T16:05:53;29.57;;;12.97;;
15603;SDS011;7902;49.042;9.092;2022-12-18T16:08:19;42.80;;;15.17;;
15603;SDS011;7902;49.042;9.092;2022-12-18T16:10:45;44.27;;;16.60;;
15603;SDS011;7902;49.042;9.092;2022-12-18T16:13:12;36.33;;;15.90;;
15603;SDS011;7902;49.042;9.092;2022-12-18T16:15:41;45.00;;;15.10;;
15603;SDS011;7902;49.042;9.092;2022-12-18T16:18:06;39.40;;;14.47;;
15603;SDS011;7902;49.042;9.092;2022-12-18T16:20:32;41.77;;;15.07;;
15603;SDS011;7902;49.042;9.092;2022-12-18T16:22:59;45.87;;;16.10;;
15603;SDS011;7902;49.042;9.092;2022-12-18T16:25:26;35.33;;;14.80;;
15603;SDS011;7902;49.042;9.092;2022-12-18T16:27:54;31.97;;;13.50;;
15603;SDS011;7902;49.042;9.092;2022-12-18T16:30:21;38.50;;;14.73;;
15603;SDS011;7902;49.042;9.092;2022-12-18T16:32:53;31.23;;;13.43;;
15603;SDS011;7902;49.042;9.092;2022-12-18T16:35:20;35.13;;;13.30;;
15603;SDS011;7902;49.042;9.092;2022-12-18T16:37:46;33.43;;;12.47;;
15603;SDS011;7902;49.042;9.092;2022-12-18T16:40:13;34.13;;;13.20;;
15603;SDS011;7902;49.042;9.092;2022-12-18T16:42:42;28.00;;;12.40;;
15603;SDS011;7902;49.042;9.092;2022-12-18T16:45:11;33.50;;;13.40;;
15603;SDS011;7902;49.042;9.092;2022-12-18T16:47:41;32.37;;;12.17;;
15603;SDS011;7902;49.042;9.092;2022-12-18T16:50:07;34.37;;;13.73;;
15603;SDS011;7902;49.042;9.092;2022-12-18T16:52:34;32.20;;;13.53;;